createdAt,value
2023-05-20T00:02:57.687Z,13.75
2023-05-20T00:06:00.448Z,13.80
2023-05-20T00:09:03.807Z,13.77
2023-05-20T00:12:07.669Z,13.77
2023-05-20T00:15:13.024Z,13.80
2023-05-20T00:18:15.581Z,13.88
2023-05-20T00:21:18.329Z,13.92
2023-05-20T00:24:20.954Z,13.99
2023-05-20T00:27:23.897Z,14.05
2023-05-20T00:30:27.860Z,14.04
2023-05-20T00:33:30.728Z,14.05
2023-05-20T00:36:33.308Z,14.06
2023-05-20T00:39:36.282Z,14.06
2023-05-20T00:42:39.269Z,14.10
2023-05-20T00:45:43.206Z,14.04
2023-05-20T00:48:45.893Z,14.18
2023-05-20T00:51:48.600Z,14.29
2023-05-20T00:54:51.848Z,14.35
2023-05-20T00:57:55.114Z,14.37
2023-05-20T01:00:59.338Z,14.40
2023-05-20T01:04:02.046Z,14.38
2023-05-20T01:07:05.744Z,14.33
2023-05-20T01:10:09.624Z,14.40
2023-05-20T01:13:16.231Z,14.50
2023-05-20T01:16:21.564Z,14.47
2023-05-20T01:19:34.058Z,14.57
2023-05-20T01:22:39.344Z,14.59
2023-05-20T01:25:42.446Z,14.64
2023-05-20T01:28:45.112Z,14.63
2023-05-20T01:31:48.445Z,14.71
2023-05-20T01:34:52.257Z,14.71
2023-05-20T01:37:57.411Z,14.74
2023-05-20T01:41:00.714Z,14.72
2023-05-20T01:44:03.745Z,14.72
2023-05-20T01:47:06.601Z,14.74
2023-05-20T01:50:10.185Z,14.69
2023-05-20T01:53:14.090Z,14.67
2023-05-20T01:56:16.859Z,14.68
2023-05-20T01:59:19.673Z,14.66
2023-05-20T02:02:22.289Z,14.64
2023-05-20T02:05:25.079Z,14.60
2023-05-20T02:08:29.161Z,14.48
2023-05-20T02:11:31.907Z,14.38
2023-05-20T02:14:34.532Z,14.31
2023-05-20T02:17:37.293Z,14.20
2023-05-20T02:20:41.138Z,14.13
2023-05-20T02:23:45.190Z,14.06
2023-05-20T02:26:49.336Z,14.01
2023-05-20T02:29:52.010Z,13.87
2023-05-20T02:32:54.780Z,13.77
2023-05-20T02:35:57.808Z,13.65
2023-05-20T02:39:01.759Z,13.63
2023-05-20T02:42:05.216Z,13.57
2023-05-20T02:45:10.133Z,13.56
2023-05-20T02:48:12.806Z,13.54
2023-05-20T02:51:15.365Z,13.48
2023-05-20T02:54:19.346Z,13.36
2023-05-20T02:57:22.004Z,13.35
2023-05-20T03:00:24.642Z,13.37
2023-05-20T03:03:27.644Z,13.35
2023-05-20T03:06:31.768Z,13.28
2023-05-20T03:09:35.846Z,13.25
2023-05-20T03:12:38.451Z,13.26
2023-05-20T03:15:41.275Z,13.26
2023-05-20T03:18:43.885Z,13.27
2023-05-20T03:21:46.638Z,13.30
2023-05-20T03:24:52.740Z,13.27
2023-05-20T03:27:55.502Z,13.26
2023-05-20T03:30:58.056Z,13.15
2023-05-20T03:34:00.729Z,13.05
2023-05-20T03:37:03.358Z,12.96
2023-05-20T03:40:10.338Z,12.86
2023-05-20T03:43:13.063Z,12.83
2023-05-20T03:46:15.715Z,12.93
2023-05-20T03:49:18.402Z,13.05
2023-05-20T03:52:21.308Z,13.21
2023-05-20T03:55:25.953Z,13.29
2023-05-20T03:58:29.767Z,13.38
2023-05-20T04:01:32.357Z,13.36
2023-05-20T04:04:35.013Z,13.38
2023-05-20T04:07:37.800Z,13.54
2023-05-20T04:10:43.737Z,13.61
2023-05-20T04:13:46.345Z,13.74
2023-05-20T04:16:50.173Z,13.85
2023-05-20T04:19:53.032Z,13.92
2023-05-20T04:22:56.119Z,14.06
2023-05-20T04:26:02.663Z,14.15
2023-05-20T04:29:05.611Z,14.21
2023-05-20T04:32:10.925Z,14.29
2023-05-20T04:35:13.876Z,14.36
2023-05-20T04:38:16.858Z,14.47
2023-05-20T04:41:20.810Z,14.52
2023-05-20T04:44:24.711Z,14.51
2023-05-20T04:47:27.416Z,14.59
2023-05-20T04:50:30.235Z,14.71
2023-05-20T04:53:33.902Z,14.91
2023-05-20T04:56:38.228Z,14.95
2023-05-20T04:59:40.794Z,15.02
2023-05-20T05:02:43.734Z,15.11
2023-05-20T05:05:46.486Z,15.33
2023-05-20T05:08:49.069Z,15.57
2023-05-20T05:11:53.070Z,15.86
2023-05-20T05:14:55.971Z,16.09
2023-05-20T05:17:58.902Z,16.32
2023-05-20T05:21:02.876Z,16.56
2023-05-20T05:24:05.620Z,16.62
2023-05-20T05:27:09.566Z,16.72
2023-05-20T05:30:12.490Z,16.91
2023-05-20T05:33:15.594Z,17.15
2023-05-20T05:36:18.521Z,17.31
2023-05-20T05:39:21.084Z,17.50
2023-05-20T05:42:24.953Z,17.63
2023-05-20T05:45:27.703Z,17.79
2023-05-20T05:48:30.428Z,17.77
2023-05-20T05:51:33.024Z,17.90
2023-05-20T05:54:35.906Z,18.08
2023-05-20T05:57:40.047Z,17.95
2023-05-20T06:00:42.683Z,18.02
2023-05-20T06:03:45.530Z,17.85
2023-05-20T06:06:49.405Z,17.88
2023-05-20T06:09:52.028Z,17.99
2023-05-20T06:12:56.096Z,17.93
2023-05-20T06:15:58.925Z,17.99
2023-05-20T06:19:03.489Z,18.13
2023-05-20T06:22:06.357Z,18.18
2023-05-20T06:25:10.432Z,18.13
2023-05-20T06:28:14.500Z,18.11
2023-05-20T06:31:17.233Z,18.65
2023-05-20T06:34:19.934Z,18.83
2023-05-20T06:37:24.378Z,18.97
2023-05-20T06:40:27.537Z,19.02
2023-05-20T06:43:31.819Z,19.42
2023-05-20T06:46:34.552Z,19.66
2023-05-20T06:49:37.249Z,19.58
2023-05-20T06:52:39.849Z,19.67
2023-05-20T06:55:42.548Z,19.64
2023-05-20T06:58:46.598Z,19.74
2023-05-20T07:01:49.230Z,19.75
2023-05-20T07:04:51.889Z,20.11
2023-05-20T07:07:54.596Z,20.47
2023-05-20T07:10:57.489Z,20.29
2023-05-20T07:14:03.499Z,20.46
2023-05-20T07:17:07.103Z,20.25
2023-05-20T07:20:10.269Z,20.11
2023-05-20T07:23:14.466Z,19.62
2023-05-20T07:26:18.385Z,19.35
2023-05-20T07:29:22.536Z,19.38
2023-05-20T07:32:25.309Z,19.64
2023-05-20T07:35:27.842Z,19.47
2023-05-20T07:38:30.613Z,19.42
2023-05-20T07:41:33.209Z,19.40
2023-05-20T07:44:37.420Z,19.57
2023-05-20T07:47:39.965Z,19.84
2023-05-20T07:50:42.651Z,20.00
2023-05-20T07:53:45.469Z,20.36
2023-05-20T07:56:48.190Z,21.00
2023-05-20T07:59:52.180Z,21.48
2023-05-20T08:02:55.095Z,21.57
2023-05-20T08:05:58.091Z,22.02
2023-05-20T08:09:01.427Z,21.91
2023-05-20T08:12:04.238Z,21.90
2023-05-20T08:15:09.437Z,21.83
2023-05-20T08:18:12.030Z,22.13
2023-05-20T08:21:15.893Z,22.20
2023-05-20T08:24:18.699Z,22.28
2023-05-20T08:27:21.472Z,22.61
2023-05-20T08:30:25.934Z,22.87
2023-05-20T08:33:28.670Z,22.99
2023-05-20T08:36:31.533Z,22.93
2023-05-20T08:39:34.951Z,23.20
2023-05-20T08:42:37.691Z,23.12
2023-05-20T08:45:41.544Z,23.27
2023-05-20T08:48:44.555Z,23.78
2023-05-20T08:51:48.295Z,24.06
2023-05-20T08:54:51.614Z,23.85
2023-05-20T08:57:54.814Z,23.70
2023-05-20T09:00:58.842Z,23.98
2023-05-20T09:04:02.777Z,24.24
2023-05-20T09:07:05.958Z,24.34
2023-05-20T09:10:09.606Z,23.76
2023-05-20T09:13:12.632Z,23.52
2023-05-20T09:16:17.058Z,23.95
2023-05-20T09:19:24.227Z,23.81
2023-05-20T09:22:28.437Z,23.65
2023-05-20T09:25:31.546Z,23.76
2023-05-20T09:28:36.045Z,23.65
2023-05-20T09:31:40.434Z,23.74
2023-05-20T09:34:43.390Z,23.87
2023-05-20T09:37:47.894Z,24.56
2023-05-20T09:40:50.713Z,24.94
2023-05-20T09:43:53.832Z,24.83
2023-05-20T09:46:59.127Z,24.84
2023-05-20T09:50:03.947Z,25.04
2023-05-20T09:53:07.535Z,25.29
2023-05-20T09:56:10.294Z,25.37
2023-05-20T09:59:13.746Z,25.16
2023-05-20T10:02:17.778Z,25.37
2023-05-20T10:05:24.106Z,25.10
2023-05-20T10:08:39.258Z,24.81
2023-05-20T10:11:57.382Z,24.75
2023-05-20T10:15:08.179Z,24.61
2023-05-20T10:18:17.358Z,24.63
2023-05-20T10:21:24.473Z,24.66
2023-05-20T10:24:31.235Z,24.58
2023-05-20T10:27:43.802Z,24.84
2023-05-20T10:30:51.029Z,24.64
2023-05-20T10:33:56.058Z,25.84
2023-05-20T10:36:59.568Z,26.25
2023-05-20T10:40:08.366Z,26.86
2023-05-20T10:43:12.402Z,26.64
2023-05-20T10:46:31.165Z,26.12
2023-05-20T10:49:42.117Z,25.98
2023-05-20T10:52:44.749Z,26.39
2023-05-20T10:55:53.013Z,26.47
2023-05-20T10:58:56.426Z,26.59
2023-05-20T11:01:59.300Z,27.22
2023-05-20T11:05:04.442Z,27.71
2023-05-20T11:08:16.927Z,27.86
2023-05-20T11:11:30.167Z,27.72
2023-05-20T11:14:32.806Z,27.58
2023-05-20T11:17:35.401Z,28.10
2023-05-20T11:20:39.451Z,28.04
2023-05-20T11:23:42.579Z,27.82
2023-05-20T11:26:46.003Z,27.60
2023-05-20T11:29:50.895Z,27.34
2023-05-20T11:33:00.813Z,28.54
2023-05-20T11:36:08.753Z,29.19
2023-05-20T11:39:19.837Z,29.20
2023-05-20T11:42:22.740Z,29.57
2023-05-20T11:45:25.671Z,29.16
2023-05-20T11:48:28.413Z,28.98
2023-05-20T11:51:32.267Z,28.80
2023-05-20T11:54:36.627Z,28.69
2023-05-20T11:57:39.568Z,29.01
2023-05-20T12:00:51.326Z,28.88
2023-05-20T12:03:57.788Z,28.41
2023-05-20T12:07:03.983Z,28.84
2023-05-20T12:10:08.282Z,29.65
2023-05-20T12:13:12.956Z,30.54
2023-05-20T12:16:15.638Z,30.95
2023-05-20T12:19:18.276Z,32.13
2023-05-20T12:22:22.482Z,32.63
2023-05-20T12:25:25.954Z,31.57
2023-05-20T12:28:28.726Z,30.90
2023-05-20T12:31:34.475Z,30.15
2023-05-20T12:34:38.016Z,30.34
2023-05-20T12:37:42.790Z,30.80
2023-05-20T12:40:45.465Z,30.90
2023-05-20T12:43:48.308Z,31.52
2023-05-20T12:46:51.069Z,31.56
2023-05-20T12:49:54.168Z,32.13
2023-05-20T12:52:58.114Z,31.48
2023-05-20T12:56:01.020Z,30.70
2023-05-20T12:59:03.773Z,30.01
2023-05-20T13:02:06.711Z,30.81
2023-05-20T13:05:10.076Z,31.81
2023-05-20T13:08:14.812Z,31.70
2023-05-20T13:11:17.840Z,31.99
2023-05-20T13:14:21.577Z,32.65
2023-05-20T13:17:24.610Z,33.77
2023-05-20T13:20:27.142Z,34.15
2023-05-20T13:23:31.071Z,33.71
2023-05-20T13:26:33.920Z,34.08
2023-05-20T13:29:36.605Z,32.95
2023-05-20T13:32:39.194Z,32.39
2023-05-20T13:35:41.624Z,32.21
2023-05-20T13:38:45.522Z,33.91
2023-05-20T13:41:48.188Z,35.51
2023-05-20T13:44:50.919Z,40.45
2023-05-20T13:47:53.689Z,42.40
2023-05-20T13:50:56.287Z,42.64
2023-05-20T13:54:00.178Z,40.63
2023-05-20T13:57:03.114Z,37.03
2023-05-20T14:00:07.168Z,35.07
2023-05-20T14:03:10.387Z,33.71
2023-05-20T14:06:14.942Z,34.11
2023-05-20T14:09:19.029Z,34.24
2023-05-20T14:12:22.974Z,33.98
2023-05-20T14:15:25.910Z,33.06
2023-05-20T14:18:28.588Z,33.22
2023-05-20T14:21:31.666Z,33.84
2023-05-20T14:24:35.593Z,34.43
2023-05-20T14:27:38.755Z,34.23
2023-05-20T14:30:41.423Z,34.88
2023-05-20T14:33:44.297Z,36.57
2023-05-20T14:36:47.018Z,37.56
2023-05-20T14:39:50.921Z,38.70
2023-05-20T14:42:53.614Z,38.04
2023-05-20T14:45:56.206Z,36.77
2023-05-20T14:48:58.713Z,34.47
2023-05-20T14:52:01.729Z,34.81
2023-05-20T14:55:06.441Z,35.27
2023-05-20T14:58:09.099Z,38.71
2023-05-20T15:01:11.794Z,42.27
2023-05-20T15:04:14.481Z,40.03
2023-05-20T15:07:17.127Z,37.08
2023-05-20T15:10:21.092Z,34.73
2023-05-20T15:13:23.704Z,33.28
2023-05-20T15:16:26.393Z,32.83
2023-05-20T15:19:29.057Z,32.55
2023-05-20T15:22:31.970Z,32.23
2023-05-20T15:25:36.020Z,32.34
2023-05-20T15:28:38.968Z,33.36
2023-05-20T15:31:41.524Z,33.61
2023-05-20T15:34:44.106Z,32.80
2023-05-20T15:37:46.469Z,33.32
2023-05-20T15:40:50.815Z,33.49
2023-05-20T15:43:53.399Z,33.32
2023-05-20T15:46:55.875Z,34.55
2023-05-20T15:49:58.969Z,34.87
2023-05-20T15:53:01.611Z,35.87
2023-05-20T15:56:06.210Z,35.65
2023-05-20T15:59:08.832Z,35.62
2023-05-20T16:02:11.434Z,37.55
2023-05-20T16:05:14.142Z,41.68
2023-05-20T16:08:16.676Z,44.56
2023-05-20T16:11:21.236Z,45.35
2023-05-20T16:14:23.813Z,45.23
2023-05-20T16:17:26.428Z,44.90
2023-05-20T16:20:29.145Z,44.05
2023-05-20T16:23:31.699Z,40.38
2023-05-20T16:26:36.036Z,37.47
2023-05-20T16:29:39.749Z,39.79
2023-05-20T16:32:42.427Z,42.09
2023-05-20T16:35:45.062Z,42.76
2023-05-20T16:38:47.598Z,39.86
2023-05-20T16:41:51.652Z,36.32
2023-05-20T16:44:54.243Z,34.45
2023-05-20T16:47:57.247Z,33.24
2023-05-20T16:50:59.886Z,32.29
2023-05-20T16:54:02.461Z,31.39
2023-05-20T16:57:07.635Z,30.44
2023-05-20T17:00:11.566Z,29.89
2023-05-20T17:03:14.257Z,29.04
2023-05-20T17:06:17.566Z,28.92
2023-05-20T17:09:20.166Z,28.58
2023-05-20T17:12:23.867Z,28.58
2023-05-20T17:15:26.734Z,28.42
2023-05-20T17:18:29.257Z,28.28
2023-05-20T17:21:31.863Z,28.21
2023-05-20T17:24:35.731Z,28.09
2023-05-20T17:27:39.621Z,28.07
2023-05-20T17:30:42.144Z,27.51
2023-05-20T17:33:44.832Z,27.42
2023-05-20T17:36:47.458Z,26.74
2023-05-20T17:39:49.970Z,26.73
2023-05-20T17:42:53.867Z,26.62
2023-05-20T17:45:56.481Z,26.41
2023-05-20T17:48:59.086Z,26.09
2023-05-20T17:52:01.984Z,25.88
2023-05-20T17:55:04.773Z,25.71
2023-05-20T17:58:08.685Z,25.47
2023-05-20T18:01:11.300Z,25.22
2023-05-20T18:04:13.876Z,25.06
2023-05-20T18:07:17.642Z,24.96
2023-05-20T18:10:20.229Z,24.91
2023-05-20T18:13:24.160Z,24.75
2023-05-20T18:16:27.386Z,24.43
2023-05-20T18:19:30.168Z,24.39
2023-05-20T18:22:33.002Z,24.34
2023-05-20T18:25:35.561Z,24.32
2023-05-20T18:28:39.461Z,24.28
2023-05-20T18:31:43.519Z,24.19
2023-05-20T18:34:46.722Z,24.10
2023-05-20T18:37:49.276Z,24.02
2023-05-20T18:40:51.903Z,23.91
2023-05-20T18:43:56.172Z,23.78
2023-05-20T18:46:58.687Z,23.68
2023-05-20T18:50:01.632Z,23.58
2023-05-20T18:53:04.287Z,23.40
2023-05-20T18:56:07.492Z,23.28
2023-05-20T18:59:11.420Z,23.21
2023-05-20T19:02:15.215Z,23.08
2023-05-20T19:05:20.388Z,23.00
2023-05-20T19:08:23.289Z,22.87
2023-05-20T19:11:25.913Z,22.82
2023-05-20T19:14:29.803Z,22.81
2023-05-20T19:17:32.444Z,22.79
2023-05-20T19:20:35.158Z,22.76
2023-05-20T19:23:37.724Z,22.70
2023-05-20T19:26:40.645Z,22.58
2023-05-20T19:29:44.477Z,22.45
2023-05-20T19:32:47.072Z,22.35
2023-05-20T19:35:49.624Z,22.23
2023-05-20T19:38:52.245Z,22.12
2023-05-20T19:41:54.940Z,22.06
2023-05-20T19:44:58.824Z,21.94
2023-05-20T19:48:01.609Z,21.89
2023-05-20T19:51:04.526Z,21.73
2023-05-20T19:54:07.236Z,21.61
2023-05-20T19:57:09.935Z,21.54
2023-05-20T20:00:15.392Z,21.49
2023-05-20T20:03:18.052Z,21.33
2023-05-20T20:06:21.244Z,21.21
2023-05-20T20:09:23.694Z,21.10
2023-05-20T20:12:26.498Z,21.08
2023-05-20T20:15:31.674Z,21.12
2023-05-20T20:18:34.260Z,21.10
2023-05-20T20:21:36.789Z,20.96
2023-05-20T20:24:39.321Z,20.76
2023-05-20T20:27:43.839Z,20.64
2023-05-20T20:30:47.719Z,20.56
2023-05-20T20:33:50.574Z,20.48
2023-05-20T20:36:54.703Z,20.34
2023-05-20T20:39:57.280Z,20.28
2023-05-20T20:43:00.845Z,20.20
2023-05-20T20:46:06.223Z,20.15
2023-05-20T20:49:08.813Z,20.05
2023-05-20T20:52:12.372Z,19.99
2023-05-20T20:55:15.060Z,19.93
2023-05-20T20:58:17.703Z,19.89
2023-05-20T21:01:21.624Z,19.81
2023-05-20T21:04:25.185Z,19.73
2023-05-20T21:07:27.763Z,19.75
2023-05-20T21:10:30.502Z,19.68
2023-05-20T21:13:33.077Z,19.60
2023-05-20T21:16:36.988Z,19.56
2023-05-20T21:19:39.596Z,19.48
2023-05-20T21:22:42.102Z,19.40
2023-05-20T21:25:44.801Z,19.38
2023-05-20T21:28:47.311Z,19.38
2023-05-20T21:31:51.169Z,19.33
2023-05-20T21:34:54.038Z,19.29
2023-05-20T21:37:57.510Z,19.22
2023-05-20T21:41:01.449Z,19.19
2023-05-20T21:44:04.251Z,19.07
2023-05-20T21:47:08.400Z,18.97
2023-05-20T21:50:12.176Z,18.99
2023-05-20T21:53:14.821Z,18.96
2023-05-20T21:56:17.442Z,18.88
2023-05-20T21:59:19.989Z,18.85
2023-05-20T22:02:23.968Z,18.83
2023-05-20T22:05:27.444Z,18.82
2023-05-20T22:08:30.783Z,18.87
2023-05-20T22:11:33.682Z,18.84
2023-05-20T22:14:36.211Z,18.81
2023-05-20T22:17:40.590Z,18.84
2023-05-20T22:20:43.298Z,18.82
2023-05-20T22:23:45.814Z,18.82
2023-05-20T22:26:48.369Z,18.86
2023-05-20T22:29:50.909Z,18.86
2023-05-20T22:32:54.953Z,18.84
2023-05-20T22:36:00.865Z,18.83
2023-05-20T22:39:04.861Z,18.90
2023-05-20T22:42:07.485Z,18.94
2023-05-20T22:45:11.249Z,18.86
2023-05-20T22:48:15.282Z,18.77
2023-05-20T22:51:18.555Z,18.74
2023-05-20T22:54:21.125Z,18.73
2023-05-20T22:57:24.827Z,18.71
2023-05-20T23:00:27.674Z,18.69
2023-05-20T23:03:31.519Z,18.59
2023-05-20T23:06:38.010Z,18.62
2023-05-20T23:09:40.592Z,18.58
2023-05-20T23:12:43.141Z,18.54
2023-05-20T23:15:48.069Z,18.50
2023-05-20T23:18:52.136Z,18.55
2023-05-20T23:21:54.684Z,18.51
2023-05-20T23:24:57.577Z,18.45
2023-05-20T23:28:00.202Z,18.46
2023-05-20T23:31:02.728Z,18.47
2023-05-20T23:34:07.278Z,18.44
2023-05-20T23:37:10.050Z,18.40
2023-05-20T23:40:13.161Z,18.34
2023-05-20T23:43:15.849Z,18.32
2023-05-20T23:46:19.138Z,18.31
2023-05-20T23:49:26.980Z,18.31
2023-05-20T23:52:29.540Z,18.21
2023-05-20T23:55:32.121Z,18.18
2023-05-20T23:58:34.771Z,18.18
